Allen, Kansas
Current Conditions -  °F | °C
As of 4:53 AM on Friday 24 Oct 2014 (Local Time) from KEMP Reporting Station
Haze Haze  
Wind Chill: 57°   Ceiling: 200
Heat Index: 57°   Visibility: 2mi
Dew Point: 57°   Wind: 14mph
Humidity: 100%   Direction: 170°S
Pressure: 30.04"   Gusts: NA
Location:  38.66°N, 96.17°W
Report Text: KEMP 240953Z AUTO 17012KT 2SM BR OVC002 14/14 A3004 RMK AO2 SLP170 T01390139
Loading
Personal Weather Stations






























Interactive Weather Map
Tropical Storm Tracking
New forecast layout! Learn more

10-Day Weather Forecast

Advertisements
Track Severe Weather on mobile